createdAt,value
2023-04-12T00:01:07.440Z,4.80
2023-04-12T00:03:34.843Z,4.27
2023-04-12T00:06:03.459Z,7.40
2023-04-12T00:08:35.487Z,7.03
2023-04-12T00:11:03.613Z,5.73
2023-04-12T00:13:31.403Z,7.07
2023-04-12T00:15:58.906Z,4.80
2023-04-12T00:18:26.360Z,3.37
2023-04-12T00:20:53.660Z,3.67
2023-04-12T00:23:21.230Z,6.33
2023-04-12T00:25:48.554Z,5.07
2023-04-12T00:28:16.262Z,6.77
2023-04-12T00:30:43.855Z,6.33
2023-04-12T00:33:11.093Z,9.80
2023-04-12T00:35:38.684Z,4.57
2023-04-12T00:38:10.599Z,3.60
2023-04-12T00:40:42.473Z,4.40
2023-04-12T00:43:15.251Z,2.37
2023-04-12T00:45:42.705Z,4.50
2023-04-12T00:48:09.940Z,5.37
2023-04-12T00:50:37.262Z,5.70
2023-04-12T00:53:04.794Z,6.33
2023-04-12T00:55:32.142Z,4.93
2023-04-12T00:57:59.444Z,11.00
2023-04-12T01:00:27.344Z,8.07
2023-04-12T01:02:54.937Z,3.57
2023-04-12T01:05:24.508Z,8.83
2023-04-12T01:08:12.079Z,6.87
2023-04-12T01:10:57.974Z,4.73
2023-04-12T01:13:31.031Z,3.20
2023-04-12T01:16:07.690Z,4.67
2023-04-12T01:18:40.862Z,3.83
2023-04-12T01:21:15.556Z,2.60
2023-04-12T01:23:42.908Z,6.50
2023-04-12T01:26:21.861Z,5.23
2023-04-12T01:28:52.836Z,7.70
2023-04-12T01:31:21.035Z,7.03
2023-04-12T01:33:48.334Z,4.50
2023-04-12T01:36:17.854Z,4.97
2023-04-12T01:38:45.468Z,3.10
2023-04-12T01:41:12.910Z,7.07
2023-04-12T01:43:46.237Z,3.63
2023-04-12T01:46:14.574Z,3.17
2023-04-12T01:48:42.318Z,11.97
2023-04-12T01:51:16.876Z,4.03
2023-04-12T01:53:44.720Z,8.30
2023-04-12T01:56:12.494Z,5.80
2023-04-12T01:58:40.659Z,6.33
2023-04-12T02:01:09.177Z,5.43
2023-04-12T02:03:37.770Z,5.07
2023-04-12T02:06:05.803Z,4.40
2023-04-12T02:08:32.966Z,5.23
2023-04-12T02:11:00.608Z,8.80
2023-04-12T02:13:27.954Z,4.00
2023-04-12T02:15:55.718Z,5.30
2023-04-12T02:18:24.422Z,3.07
2023-04-12T02:20:51.583Z,6.37
2023-04-12T02:23:18.754Z,3.97
2023-04-12T02:25:46.488Z,4.57
2023-04-12T02:28:14.058Z,4.20
2023-04-12T02:30:45.453Z,4.97
2023-04-12T02:33:13.294Z,4.40
2023-04-12T02:35:40.692Z,4.20
2023-04-12T02:38:08.821Z,4.53
2023-04-12T02:40:40.859Z,3.43
2023-04-12T02:43:08.683Z,8.30
2023-04-12T02:45:36.359Z,5.87
2023-04-12T02:48:05.258Z,4.07
2023-04-12T02:50:32.611Z,9.50
2023-04-12T02:52:59.835Z,6.13
2023-04-12T02:55:27.107Z,4.80
2023-04-12T02:57:55.056Z,6.30
2023-04-12T03:00:22.364Z,3.33
2023-04-12T03:02:51.475Z,5.77
2023-04-12T03:05:19.548Z,3.60
2023-04-12T03:07:46.734Z,3.10
2023-04-12T03:10:14.033Z,3.60
2023-04-12T03:12:42.339Z,5.63
2023-04-12T03:15:09.808Z,3.07
2023-04-12T03:17:37.088Z,4.00
2023-04-12T03:20:07.871Z,3.57
2023-04-12T03:22:36.414Z,4.87
2023-04-12T03:25:04.433Z,4.17
2023-04-12T03:27:31.667Z,5.23
2023-04-12T03:29:59.055Z,3.27
2023-04-12T03:32:26.287Z,2.77
2023-04-12T03:34:53.475Z,5.33
2023-04-12T03:37:20.697Z,3.97
2023-04-12T03:39:48.422Z,5.70
2023-04-12T03:42:31.709Z,3.50
2023-04-12T03:45:00.628Z,1.97
2023-04-12T03:47:27.932Z,5.03
2023-04-12T03:52:33.550Z,2.63
2023-04-12T03:55:01.335Z,3.87
2023-04-12T03:57:28.735Z,4.27
2023-04-12T03:59:56.046Z,4.00
2023-04-12T04:02:23.318Z,2.67
2023-04-12T04:04:51.707Z,2.50
2023-04-12T04:07:18.982Z,4.77
2023-04-12T04:09:46.170Z,3.10
2023-04-12T04:12:13.347Z,3.53
2023-04-12T04:14:40.663Z,7.77
2023-04-12T04:17:07.868Z,3.47
2023-04-12T04:19:35.026Z,2.00
2023-04-12T04:22:02.351Z,4.77
2023-04-12T04:24:29.932Z,5.17
2023-04-12T04:26:58.779Z,2.50
2023-04-12T04:29:26.229Z,2.40
2023-04-12T04:31:53.959Z,2.67
2023-04-12T04:34:22.275Z,4.00
2023-04-12T04:36:49.586Z,3.37
2023-04-12T04:39:17.348Z,1.57
2023-04-12T04:41:45.058Z,3.17
2023-04-12T04:44:13.341Z,2.87
2023-04-12T04:46:40.577Z,1.23
2023-04-12T04:49:07.837Z,3.10
2023-04-12T04:51:35.080Z,2.33
2023-04-12T04:54:02.387Z,3.33
2023-04-12T04:56:29.628Z,2.53
2023-04-12T04:58:57.237Z,3.17
2023-04-12T05:01:28.797Z,3.60
2023-04-12T05:03:56.408Z,7.03
2023-04-12T05:06:24.605Z,3.00
2023-04-12T05:08:52.502Z,2.63
2023-04-12T05:11:20.476Z,2.00
2023-04-12T05:13:47.645Z,1.73
2023-04-12T05:16:14.956Z,2.23
2023-04-12T05:18:42.315Z,2.70
2023-04-12T05:21:09.743Z,4.73
2023-04-12T05:23:37.979Z,3.43
2023-04-12T05:26:05.504Z,4.50
2023-04-12T05:28:32.876Z,2.77
2023-04-12T05:31:00.142Z,3.50
2023-04-12T05:33:27.429Z,5.50
2023-04-12T05:35:54.804Z,5.67
2023-04-12T05:38:22.184Z,4.07
2023-04-12T05:40:50.257Z,6.13
2023-04-12T05:43:18.191Z,5.53
2023-04-12T05:45:45.573Z,3.13
2023-04-12T05:48:13.831Z,3.53
2023-04-12T05:50:40.990Z,2.07
2023-04-12T05:53:08.806Z,4.57
2023-04-12T05:55:38.094Z,6.33
2023-04-12T05:58:05.465Z,5.37
2023-04-12T06:00:32.671Z,3.40
2023-04-12T06:03:00.074Z,5.20
2023-04-12T06:05:27.511Z,5.27
2023-04-12T06:07:55.294Z,4.87
2023-04-12T06:10:22.527Z,5.43
2023-04-12T06:12:49.850Z,3.63
2023-04-12T06:15:17.213Z,3.23
2023-04-12T06:17:44.436Z,4.50
2023-04-12T06:20:12.333Z,5.00
2023-04-12T06:22:39.614Z,5.13
2023-04-12T06:25:11.114Z,5.50
2023-04-12T06:27:38.701Z,4.13
2023-04-12T06:30:06.131Z,5.40
2023-04-12T06:32:33.876Z,2.83
2023-04-12T06:35:01.213Z,5.53
2023-04-12T06:37:28.371Z,5.23
2023-04-12T06:39:55.561Z,8.07
2023-04-12T06:42:22.855Z,3.73
2023-04-12T06:44:50.019Z,2.17
2023-04-12T06:47:17.188Z,4.17
2023-04-12T06:49:44.374Z,3.27
2023-04-12T06:52:11.519Z,3.47
2023-04-12T06:54:38.802Z,2.03
2023-04-12T06:57:12.303Z,4.07
2023-04-12T06:59:42.591Z,4.40
2023-04-12T07:02:09.950Z,1.67
2023-04-12T07:04:37.611Z,2.93
2023-04-12T07:07:04.797Z,2.93
2023-04-12T07:09:32.563Z,3.10
2023-04-12T07:12:01.056Z,2.93
2023-04-12T07:14:28.240Z,2.83
2023-04-12T07:16:55.590Z,3.20
2023-04-12T07:19:23.000Z,3.60
2023-04-12T07:21:50.246Z,6.50
2023-04-12T07:24:17.489Z,7.13
2023-04-12T07:26:44.663Z,3.20
2023-04-12T07:29:11.980Z,3.77
2023-04-12T07:31:39.592Z,3.13
2023-04-12T07:34:06.923Z,4.63
2023-04-12T07:36:34.161Z,3.70
2023-04-12T07:39:01.430Z,2.20
2023-04-12T07:41:28.834Z,2.30
2023-04-12T07:43:56.607Z,3.57
2023-04-12T07:46:23.842Z,2.77
2023-04-12T07:48:52.303Z,4.57
2023-04-12T07:51:19.666Z,4.40
2023-04-12T07:53:48.533Z,3.10
2023-04-12T07:56:16.405Z,4.07
2023-04-12T07:58:43.782Z,2.93
2023-04-12T08:01:13.473Z,2.90
2023-04-12T08:03:40.791Z,2.53
2023-04-12T08:06:09.692Z,2.60
2023-04-12T08:08:37.032Z,8.93
2023-04-12T08:11:06.265Z,2.27
2023-04-12T08:13:33.762Z,1.93
2023-04-12T08:16:01.088Z,3.27
2023-04-12T08:18:29.187Z,3.23
2023-04-12T08:20:57.147Z,3.40
2023-04-12T08:23:24.582Z,2.20
2023-04-12T08:25:51.720Z,1.80
2023-04-12T08:28:18.888Z,5.23
2023-04-12T08:30:46.323Z,2.70
2023-04-12T08:33:13.476Z,2.23
2023-04-12T08:35:41.088Z,4.53
2023-04-12T08:38:11.592Z,2.37
2023-04-12T08:40:39.270Z,2.03
2023-04-12T08:43:11.453Z,3.00
2023-04-12T08:45:38.785Z,4.30
2023-04-12T08:48:06.483Z,3.00
2023-04-12T08:50:33.824Z,2.67
2023-04-12T08:53:01.167Z,8.03
2023-04-12T08:55:28.476Z,3.97
2023-04-12T08:57:59.581Z,2.97
2023-04-12T09:00:27.323Z,2.87
2023-04-12T09:02:54.835Z,2.70
2023-04-12T09:05:27.850Z,3.20
2023-04-12T09:07:55.175Z,3.80
2023-04-12T09:10:33.472Z,4.03
2023-04-12T09:13:01.320Z,3.87
2023-04-12T09:15:28.609Z,2.70
2023-04-12T09:18:06.204Z,4.33
2023-04-12T09:20:33.568Z,4.63
2023-04-12T09:23:02.751Z,4.63
2023-04-12T09:25:37.779Z,4.43
2023-04-12T09:28:05.719Z,4.97
2023-04-12T09:30:42.114Z,9.57
2023-04-12T09:33:15.995Z,5.57
2023-04-12T09:35:43.368Z,6.23
2023-04-12T09:38:11.517Z,5.10
2023-04-12T09:40:39.192Z,5.37
2023-04-12T09:43:07.434Z,5.47
2023-04-12T09:45:35.745Z,6.00
2023-04-12T09:48:02.997Z,6.87
2023-04-12T09:50:33.440Z,5.33
2023-04-12T09:53:01.752Z,4.60
2023-04-12T09:55:30.107Z,6.07
2023-04-12T09:57:57.507Z,4.93
2023-04-12T10:00:26.952Z,4.60
2023-04-12T10:02:55.652Z,5.27
2023-04-12T10:05:26.343Z,5.83
2023-04-12T10:07:55.236Z,6.63
2023-04-12T10:10:23.638Z,6.87
2023-04-12T10:12:51.251Z,7.83
2023-04-12T10:15:20.794Z,6.77
2023-04-12T10:17:49.461Z,4.87
2023-04-12T10:20:17.658Z,4.40
2023-04-12T10:22:46.212Z,3.80
2023-04-12T10:25:15.562Z,4.40
2023-04-12T10:27:43.593Z,3.93
2023-04-12T10:30:23.313Z,4.50
2023-04-12T10:32:51.492Z,3.27
2023-04-12T10:35:18.843Z,4.17
2023-04-12T10:38:02.309Z,3.27
2023-04-12T10:40:31.505Z,3.00
2023-04-12T10:43:17.314Z,2.43
2023-04-12T10:45:44.665Z,3.37
2023-04-12T10:48:41.778Z,5.03
2023-04-12T10:51:28.162Z,3.77
2023-04-12T10:54:15.675Z,3.13
2023-04-12T10:56:43.572Z,4.57
2023-04-12T10:59:11.315Z,5.53
2023-04-12T11:01:39.648Z,5.57
2023-04-12T11:04:07.441Z,5.73
2023-04-12T11:07:03.415Z,7.60
2023-04-12T11:09:38.096Z,8.23
2023-04-12T11:12:05.402Z,7.90
2023-04-12T11:14:38.580Z,7.27
2023-04-12T11:17:15.132Z,6.90
2023-04-12T11:19:46.838Z,6.20
2023-04-12T11:22:18.741Z,8.97
2023-04-12T11:24:46.237Z,7.53
2023-04-12T11:27:13.483Z,6.40
2023-04-12T11:29:40.766Z,6.00
2023-04-12T11:32:10.895Z,6.07
2023-04-12T11:34:38.502Z,7.57
2023-04-12T11:37:10.568Z,6.33
2023-04-12T11:39:39.904Z,8.53
2023-04-12T11:42:08.769Z,7.93
2023-04-12T11:44:54.471Z,8.20
2023-04-12T11:47:24.023Z,8.00
2023-04-12T11:49:55.525Z,8.20
2023-04-12T11:52:23.254Z,5.00
2023-04-12T11:54:51.284Z,7.50
2023-04-12T11:57:20.089Z,6.20
2023-04-12T11:59:48.263Z,4.77
2023-04-12T12:02:23.302Z,6.18
2023-04-12T12:04:51.681Z,8.15
2023-04-12T12:07:21.474Z,8.60
2023-04-12T12:09:50.171Z,8.20
2023-04-12T12:12:18.438Z,10.73
2023-04-12T12:14:47.506Z,8.23
2023-04-12T12:17:16.188Z,6.78
2023-04-12T12:19:46.799Z,9.52
2023-04-12T12:22:17.660Z,9.50
2023-04-12T12:24:47.479Z,7.30
2023-04-12T12:27:18.954Z,9.73
2023-04-12T12:29:50.539Z,4.30
2023-04-12T12:32:18.460Z,17.35
2023-04-12T12:34:53.485Z,6.03
2023-04-12T12:37:23.144Z,4.95
2023-04-12T12:40:16.552Z,5.03
2023-04-12T12:42:55.082Z,8.40
2023-04-12T12:45:27.213Z,5.78
2023-04-12T12:47:55.119Z,5.10
2023-04-12T12:50:25.222Z,5.35
2023-04-12T12:52:53.415Z,7.65
2023-04-12T12:55:21.804Z,9.30
2023-04-12T12:58:05.948Z,8.35
2023-04-12T13:00:33.445Z,8.88
2023-04-12T13:03:00.690Z,7.30
2023-04-12T13:05:27.779Z,7.25
2023-04-12T13:07:54.938Z,5.10
2023-04-12T13:10:22.241Z,7.88
2023-04-12T13:12:49.605Z,10.90
2023-04-12T13:15:23.194Z,8.35
2023-04-12T13:17:54.162Z,8.05
2023-04-12T13:20:21.914Z,7.43
2023-04-12T13:22:49.358Z,7.85
2023-04-12T13:25:16.752Z,7.43
2023-04-12T13:27:43.910Z,6.45
2023-04-12T13:30:11.059Z,8.60
2023-04-12T13:32:38.919Z,10.43
2023-04-12T13:35:06.362Z,7.97
2023-04-12T13:37:34.084Z,6.80
2023-04-12T13:40:00.944Z,8.15
2023-04-12T13:42:27.920Z,7.90
2023-04-12T13:44:54.850Z,5.63
2023-04-12T13:47:22.631Z,7.43
2023-04-12T13:49:49.939Z,10.27
2023-04-12T13:52:17.141Z,10.00
2023-04-12T13:54:44.323Z,11.50
2023-04-12T13:57:11.240Z,10.87
2023-04-12T13:59:38.452Z,8.50
2023-04-12T14:02:05.508Z,9.60
2023-04-12T14:04:33.831Z,9.87
2023-04-12T14:07:01.023Z,11.50
2023-04-12T14:09:30.482Z,14.53
2023-04-12T14:11:59.491Z,9.37
2023-04-12T14:14:27.401Z,10.20
2023-04-12T14:16:57.301Z,8.57
2023-04-12T14:19:24.718Z,10.33
2023-04-12T14:21:52.258Z,5.07
2023-04-12T14:24:20.272Z,7.33
2023-04-12T14:26:48.530Z,11.10
2023-04-12T14:29:15.541Z,10.87
2023-04-12T14:31:42.761Z,10.90
2023-04-12T14:34:10.750Z,10.10
2023-04-12T14:36:40.617Z,11.77
2023-04-12T14:39:10.786Z,11.47
2023-04-12T14:41:40.699Z,8.57
2023-04-12T14:44:10.119Z,9.90
2023-04-12T14:46:38.942Z,6.47
2023-04-12T14:49:07.162Z,11.57
2023-04-12T14:51:34.376Z,8.33
2023-04-12T14:54:01.832Z,5.30
2023-04-12T14:56:31.256Z,6.37
2023-04-12T14:58:58.913Z,6.83
2023-04-12T15:01:27.418Z,7.87
2023-04-12T15:03:54.776Z,5.60
2023-04-12T15:06:23.170Z,6.67
2023-04-12T15:08:57.410Z,5.53
2023-04-12T15:11:26.941Z,4.30
2023-04-12T15:13:55.305Z,5.20
2023-04-12T15:16:22.820Z,4.77
2023-04-12T15:18:51.828Z,6.30
2023-04-12T15:21:19.357Z,4.17
2023-04-12T15:23:47.433Z,3.43
2023-04-12T15:26:14.676Z,4.97
2023-04-12T15:28:42.458Z,1.93
2023-04-12T15:31:11.839Z,4.23
2023-04-12T15:33:39.404Z,1.90
2023-04-12T15:36:06.786Z,2.40
2023-04-12T15:38:40.780Z,3.20
2023-04-12T15:41:10.703Z,2.83
2023-04-12T15:43:38.398Z,5.37
2023-04-12T15:46:06.308Z,3.57
2023-04-12T15:48:33.187Z,0.90
2023-04-12T15:51:00.215Z,4.40
2023-04-12T15:53:27.484Z,2.27
2023-04-12T15:55:57.701Z,12.80
2023-04-12T15:58:27.150Z,2.60
2023-04-12T16:00:54.357Z,2.38
2023-04-12T16:03:26.203Z,3.70
2023-04-12T16:05:53.901Z,3.03
2023-04-12T16:08:22.087Z,2.23
2023-04-12T16:10:50.270Z,4.43
2023-04-12T16:13:17.293Z,0.70
2023-04-12T16:15:44.305Z,2.07
2023-04-12T16:18:11.279Z,3.17
2023-04-12T16:20:39.493Z,3.03
2023-04-12T16:23:06.625Z,0.80
2023-04-12T16:25:36.007Z,1.07
2023-04-12T16:28:03.512Z,3.47
2023-04-12T16:30:31.896Z,3.70
2023-04-12T16:32:58.749Z,2.47
2023-04-12T16:35:25.920Z,5.03
2023-04-12T16:37:52.699Z,2.63
2023-04-12T16:40:20.342Z,1.07
2023-04-12T16:42:47.168Z,1.80
2023-04-12T16:45:15.104Z,2.00
2023-04-12T16:47:42.310Z,3.93
2023-04-12T16:50:09.665Z,1.90
2023-04-12T16:52:37.823Z,2.57
2023-04-12T16:55:05.189Z,3.37
2023-04-12T16:57:33.819Z,3.67
2023-04-12T17:00:00.737Z,4.67
2023-04-12T17:02:27.670Z,3.90
2023-04-12T17:04:54.657Z,2.10
2023-04-12T17:07:21.746Z,3.63
2023-04-12T17:09:48.562Z,1.70
2023-04-12T17:12:15.619Z,2.07
2023-04-12T17:14:42.565Z,3.20
2023-04-12T17:17:09.357Z,8.17
2023-04-12T17:19:36.221Z,2.17
2023-04-12T17:22:03.107Z,5.43
2023-04-12T17:24:30.019Z,1.23
2023-04-12T17:26:59.196Z,2.57
2023-04-12T17:29:27.751Z,3.37
2023-04-12T17:31:55.197Z,1.93
2023-04-12T17:34:22.285Z,0.80
2023-04-12T17:36:49.245Z,2.30
2023-04-12T17:39:16.708Z,1.30
2023-04-12T17:41:43.668Z,2.23
2023-04-12T17:44:10.506Z,5.37
2023-04-12T17:46:38.279Z,16.13
2023-04-12T17:49:06.644Z,1.43
2023-04-12T17:51:33.700Z,1.40
2023-04-12T17:54:03.518Z,1.53
2023-04-12T17:56:30.448Z,2.73
2023-04-12T17:58:57.777Z,3.63
2023-04-12T18:01:24.850Z,2.17
2023-04-12T18:03:51.963Z,1.77
2023-04-12T18:06:20.395Z,2.80
2023-04-12T18:08:47.273Z,2.50
2023-04-12T18:11:14.698Z,2.13
2023-04-12T18:13:42.003Z,3.47
2023-04-12T18:16:11.251Z,3.73
2023-04-12T18:18:41.326Z,4.50
2023-04-12T18:21:08.552Z,5.17
2023-04-12T18:23:35.388Z,4.70
2023-04-12T18:26:04.497Z,9.27
2023-04-12T18:28:31.775Z,5.97
2023-04-12T18:30:58.714Z,3.37
2023-04-12T18:33:25.587Z,3.80
2023-04-12T18:35:53.013Z,3.17
2023-04-12T18:38:20.005Z,3.50
2023-04-12T18:40:46.793Z,4.00
2023-04-12T18:43:13.668Z,4.20
2023-04-12T18:45:41.299Z,2.07
2023-04-12T18:48:11.384Z,2.33
2023-04-12T18:50:41.093Z,4.27
2023-04-12T18:53:08.280Z,4.03
2023-04-12T18:55:35.850Z,3.10
2023-04-12T18:58:02.837Z,4.87
2023-04-12T19:00:29.902Z,3.87
2023-04-12T19:02:56.830Z,3.93
2023-04-12T19:05:23.901Z,3.73
2023-04-12T19:07:50.900Z,3.53
2023-04-12T19:10:17.994Z,3.73
2023-04-12T19:12:45.382Z,3.73
2023-04-12T19:15:12.282Z,5.43
2023-04-12T19:17:39.555Z,2.60
2023-04-12T19:20:11.529Z,5.63
2023-04-12T19:22:42.129Z,3.20
2023-04-12T19:25:10.443Z,4.50
2023-04-12T19:27:39.139Z,4.80
2023-04-12T19:30:07.364Z,4.03
2023-04-12T19:32:34.243Z,4.47
2023-04-12T19:35:01.115Z,3.70
2023-04-12T19:37:33.800Z,3.80
2023-04-12T19:40:00.722Z,4.03
2023-04-12T19:42:27.608Z,7.20
2023-04-12T19:44:54.473Z,4.37
2023-04-12T19:47:21.737Z,3.40
2023-04-12T19:49:49.207Z,6.07
2023-04-12T19:52:20.123Z,3.60
2023-04-12T19:54:46.951Z,5.00
2023-04-12T19:57:13.866Z,2.40
2023-04-12T19:59:40.725Z,3.40
2023-04-12T20:02:07.821Z,4.63
2023-04-12T20:04:34.814Z,2.20
2023-04-12T20:07:01.631Z,1.87
2023-04-12T20:09:28.592Z,2.13
2023-04-12T20:11:56.537Z,1.80
2023-04-12T20:14:24.955Z,2.17
2023-04-12T20:16:56.025Z,1.30
2023-04-12T20:19:23.085Z,1.97
2023-04-12T20:21:49.931Z,1.10
2023-04-12T20:24:17.087Z,0.97
2023-04-12T20:26:46.565Z,2.90
2023-04-12T20:29:15.023Z,1.80
2023-04-12T20:31:42.195Z,2.77
2023-04-12T20:34:11.572Z,3.20
2023-04-12T20:36:39.207Z,3.27
2023-04-12T20:39:06.393Z,3.03
2023-04-12T20:41:38.342Z,4.63
2023-04-12T20:44:05.614Z,1.40
2023-04-12T20:46:36.822Z,1.57
2023-04-12T20:49:06.698Z,1.97
2023-04-12T20:51:33.775Z,0.73
2023-04-12T20:54:02.180Z,4.43
2023-04-12T20:56:29.273Z,0.97
2023-04-12T20:58:56.718Z,3.60
2023-04-12T21:01:24.190Z,0.93
2023-04-12T21:03:51.591Z,1.60
2023-04-12T21:06:18.540Z,3.47
2023-04-12T21:08:47.429Z,2.90
2023-04-12T21:11:14.804Z,1.27
2023-04-12T21:13:41.701Z,2.87
2023-04-12T21:16:09.770Z,4.80
2023-04-12T21:18:36.690Z,3.80
2023-04-12T21:21:03.706Z,4.03
2023-04-12T21:23:30.515Z,1.97
2023-04-12T21:25:57.728Z,4.83
2023-04-12T21:28:24.594Z,3.23
2023-04-12T21:30:55.244Z,1.93
2023-04-12T21:33:26.423Z,1.60
2023-04-12T21:35:56.488Z,4.97
2023-04-12T21:38:23.777Z,2.20
2023-04-12T21:40:51.625Z,2.93
2023-04-12T21:43:19.456Z,1.23
2023-04-12T21:45:46.766Z,2.67
2023-04-12T21:48:14.649Z,1.67
2023-04-12T21:50:42.242Z,2.37
2023-04-12T21:53:09.933Z,2.83
2023-04-12T21:55:37.709Z,2.10
2023-04-12T21:58:05.303Z,1.97
2023-04-12T22:00:32.474Z,3.77
2023-04-12T22:03:00.017Z,2.67
2023-04-12T22:05:30.755Z,1.50
2023-04-12T22:07:57.935Z,2.27
2023-04-12T22:10:25.746Z,1.37
2023-04-12T22:12:53.991Z,2.30
2023-04-12T22:15:21.352Z,1.40
2023-04-12T22:17:49.175Z,3.97
2023-04-12T22:20:16.448Z,4.10
2023-04-12T22:22:44.111Z,4.23
2023-04-12T22:25:14.809Z,3.57
2023-04-12T22:27:46.280Z,5.67
2023-04-12T22:30:13.582Z,2.20
2023-04-12T22:32:41.003Z,2.07
2023-04-12T22:35:11.476Z,3.23
2023-04-12T22:37:41.706Z,4.33
2023-04-12T22:40:12.473Z,1.47
2023-04-12T22:42:46.210Z,1.40
2023-04-12T22:45:14.503Z,2.20
2023-04-12T22:47:42.506Z,1.80
2023-04-12T22:50:10.609Z,0.90
2023-04-12T22:52:40.784Z,1.40
2023-04-12T22:55:11.596Z,1.67
2023-04-12T22:57:38.901Z,1.33
2023-04-12T23:00:06.640Z,2.20
2023-04-12T23:02:34.217Z,0.90
2023-04-12T23:05:02.712Z,1.00
2023-04-12T23:07:30.371Z,4.27
2023-04-12T23:09:57.982Z,3.80
2023-04-12T23:12:25.491Z,2.23
2023-04-12T23:14:55.778Z,0.97
2023-04-12T23:17:23.530Z,0.97
2023-04-12T23:19:51.634Z,3.03
2023-04-12T23:22:55.288Z,1.50
2023-04-12T23:25:24.369Z,1.17
2023-04-12T23:27:51.681Z,1.00
2023-04-12T23:30:20.177Z,2.13
2023-04-12T23:32:47.423Z,1.57
2023-04-12T23:35:14.636Z,2.60
2023-04-12T23:37:43.072Z,1.33
2023-04-12T23:40:14.529Z,1.00
2023-04-12T23:42:41.993Z,0.80
2023-04-12T23:45:12.271Z,0.80
2023-04-12T23:47:39.669Z,1.13
2023-04-12T23:50:10.099Z,1.53
2023-04-12T23:52:37.453Z,4.60
2023-04-12T23:55:05.181Z,3.70
2023-04-12T23:57:32.420Z,1.67
2023-04-12T23:59:59.729Z,2.80
